Time;durP1;ratioP1;P1;durP2;ratioP2;P2;SDS_P1;SDS_P2;PMS_P1;PMS_P2;Temp;Humidity;BMP_temperature;BMP_pressure;BME280_temperature;BME280_humidity;BME280_pressure;Samples;Min_cycle;Max_cycle;Signal;HPM_P1;HPM_P2
2023/01/23 00:02:13;;;;;;;;;;;;;;;2.29;100.00;100978.53;4992569;28;19963;-87
2023/01/23 00:04:38;;;;;;;;;;;;;;;2.26;100.00;100979.34;4992364;28;19944;-86
2023/01/23 00:07:03;;;;;;;;;;;;;;;2.25;100.00;100982.84;4990727;28;19968;-87
2023/01/23 00:09:29;;;;;;;;;;;;;;;2.26;100.00;100979.34;5010260;28;19922;-87
2023/01/23 08:54:47;;;;;;;;;;;;;;;2.61;100.00;101154.16;5008031;28;19925;-87
2023/01/23 08:57:13;;;;;;;;;;;;;;;2.64;100.00;101151.56;5014104;28;19921;-86
2023/01/23 08:59:38;;;;;;;;;;;;;;;2.62;100.00;101153.31;4996533;28;20056;-87
2023/01/23 09:02:04;;;;;;;;;;;;;;;2.53;100.00;101151.44;4996544;28;19917;-87
2023/01/23 09:04:29;;;;;;;;;;;;;;;2.54;100.00;101153.22;5013999;28;19960;-87
2023/01/23 09:06:54;;;;;;;;;;;;;;;2.44;100.00;101155.69;5013891;28;19963;-85
2023/01/23 09:09:19;;;;;;;;;;;;;;;2.41;100.00;101155.66;5013154;28;20288;-87
2023/01/23 09:11:45;;;;;;;;;;;;;;;2.35;100.00;101157.34;5013859;28;19917;-84
2023/01/23 09:14:10;;;;;;;;;;;;;;;2.33;100.00;101153.84;5013911;28;19917;-87
2023/01/23 09:16:36;;;;;;;;;;;;;;;2.29;100.00;101149.41;5013714;28;19917;-87
2023/01/23 09:19:04;;;;;;;;;;;;;;;2.31;100.00;101152.06;4996335;28;20020;-88
2023/01/23 09:21:29;;;;;;;;;;;;;;;2.24;100.00;101163.31;4990122;28;20381;-86
2023/01/23 09:23:55;;;;;;;;;;;;;;;2.23;100.00;101161.53;4982246;28;19968;-87
2023/01/23 09:26:23;;;;;;;;;;;;;;;2.22;100.00;101162.38;4995899;28;20343;-86
2023/01/23 09:28:51;;;;;;;;;;;;;;;2.14;100.00;101160.56;5003159;28;19922;-87
2023/01/23 09:31:16;;;;;;;;;;;;;;;2.14;100.00;101157.06;4994203;28;19917;-86
2023/01/23 09:33:42;;;;;;;;;;;;;;;2.14;100.00;101157.06;5013279;28;19925;-85
2023/01/23 09:36:07;;;;;;;;;;;;;;;2.11;100.00;101163.13;4991301;28;19924;-87
2023/01/23 09:38:33;;;;;;;;;;;;;;;2.06;100.00;101163.91;5008976;28;19925;-86
2023/01/23 09:40:59;;;;;;;;;;;;;;;2.04;100.00;101161.28;5013305;28;19917;-87
2023/01/23 09:43:40;;;;;;;;;;;;;;;2.00;100.00;101169.94;5004540;28;20327;-85
2023/01/23 09:46:18;;;;;;;;;;;;;;;2.05;100.00;101163.03;5011179;28;19918;-86
2023/01/23 09:48:47;;;;;;;;;;;;;;;2.01;100.00;101163.88;5006635;28;19925;-87
2023/01/23 09:51:28;;;;;;;;;;;;;;;1.99;100.00;101173.41;5001984;28;19953;-86
2023/01/23 09:53:57;;;;;;;;;;;;;;;2.50;100.00;101166.25;4999831;28;19921;-88
2023/01/23 09:56:35;;;;;;;;;;;;;;;2.93;100.00;101166.72;5002590;28;19933;-83
2023/01/23 09:59:00;;;;;;;;;;;;;;;3.35;100.00;101170.63;5003997;28;20372;-88
2023/01/23 10:01:51;;;;;;;;;;;;;;;3.59;100.00;101167.34;5006980;28;20013;-85
2023/01/23 10:04:15;;;;;;;;;;;;;;;3.79;100.00;101166.59;5010312;28;19921;-89
2023/01/23 10:07:00;;;;;;;;;;;;;;;3.91;100.00;101157.94;5013966;28;19924;-88
2023/01/23 10:09:28;;;;;;;;;;;;;;;4.12;100.00;101163.31;4981211;28;19921;-88
2023/01/23 10:12:05;;;;;;;;;;;;;;;4.22;100.00;101158.13;5013123;28;19929;-89
2023/01/23 10:14:39;;;;;;;;;;;;;;;4.23;100.00;101163.38;5013034;28;19971;-87
2023/01/23 10:17:16;;;;;;;;;;;;;;;4.36;100.00;101169.56;5012950;28;19951;-89
2023/01/23 10:20:04;;;;;;;;;;;;;;;4.41;100.00;101162.59;5015493;28;19918;-86
2023/01/23 10:22:32;;;;;;;;;;;;;;;4.49;100.00;101158.22;5015550;28;19921;-90
2023/01/23 10:25:01;;;;;;;;;;;;;;;4.54;100.00;101150.38;5016715;28;19922;-90
2023/01/23 10:27:44;;;;;;;;;;;;;;;4.62;100.00;101155.66;4999362;28;19925;-87
2023/01/23 10:30:25;;;;;;;;;;;;;;;4.63;100.00;101150.41;5017143;28;19999;-88
2023/01/23 10:32:58;;;;;;;;;;;;;;;4.76;100.00;101153.09;4999153;28;19918;-88
2023/01/23 10:35:43;;;;;;;;;;;;;;;4.82;100.00;101142.56;4999051;28;19953;-88
2023/01/23 10:38:23;;;;;;;;;;;;;;;4.87;100.00;101141.72;5015455;28;19926;-88
2023/01/23 10:43:33;;;;;;;;;;;;;;;5.06;100.00;101139.16;5016592;28;19948;-87
2023/01/23 10:45:59;;;;;;;;;;;;;;;5.04;100.00;101128.63;4998969;28;19924;-89
2023/01/23 10:48:29;;;;;;;;;;;;;;;5.08;100.00;101132.13;4999079;28;19913;-87
2023/01/23 10:50:54;;;;;;;;;;;;;;;5.08;100.00;101132.13;5016450;28;19921;-90
2023/01/23 10:53:23;;;;;;;;;;;;;;;5.14;100.00;101133.88;5015170;28;19921;-88
2023/01/23 10:55:49;;;;;;;;;;;;;;;5.22;100.00;101133.03;5016238;28;19925;-89
2023/01/23 10:58:27;;;;;;;;;;;;;;;5.26;100.00;101134.78;5016392;28;19925;-89
2023/01/23 11:00:53;;;;;;;;;;;;;;;5.24;100.00;101133.88;5016283;28;20422;-88
2023/01/23 11:03:21;;;;;;;;;;;;;;;5.34;100.00;101128.63;5016217;28;19921;-87
2023/01/23 11:05:59;;;;;;;;;;;;;;;5.37;100.00;101123.38;5016131;28;20372;-87
2023/01/23 11:08:40;;;;;;;;;;;;;;;5.37;100.00;101115.50;4997372;28;20352;-87
2023/01/23 11:11:14;;;;;;;;;;;;;;;5.44;100.00;101112.88;5016083;28;19922;-87
2023/01/23 11:13:40;;;;;;;;;;;;;;;5.47;100.00;101117.22;4997980;28;19925;-88
2023/01/23 11:16:07;;;;;;;;;;;;;;;5.51;100.00;101112.88;5016032;28;19917;-90
2023/01/23 11:18:41;;;;;;;;;;;;;;;5.51;100.00;101107.63;4998397;28;19921;-86
2023/01/23 11:21:18;;;;;;;;;;;;;;;5.52;100.00;101120.75;5015915;28;19922;-91
2023/01/23 11:23:45;;;;;;;;;;;;;;;5.58;100.00;101120.72;5014428;28;19917;-86
2023/01/23 11:26:31;;;;;;;;;;;;;;;5.64;100.00;101115.47;4998221;28;19925;-88
2023/01/23 11:29:09;;;;;;;;;;;;;;;;;;;;;
2023/01/23 11:31:35;;;;;;;;;;;;;;;5.72;100.00;101104.94;5015708;28;19932;-86
2023/01/23 11:34:03;;;;;;;;;;;;;;;5.74;100.00;101102.31;5015564;28;20004;-86
2023/01/23 11:36:40;;;;;;;;;;;;;;;5.78;100.00;101107.56;5015590;28;19918;-89
2023/01/23 11:39:21;;;;;;;;;;;;;;;5.89;100.00;101099.66;5014186;28;20113;-86
2023/01/23 11:41:47;;;;;;;;;;;;;;;5.86;100.00;101104.91;5015181;28;19918;-85
2023/01/23 11:44:16;;;;;;;;;;;;;;;5.92;100.00;101104.00;5015503;28;19935;-86
2023/01/23 11:47:00;;;;;;;;;;;;;;;5.93;100.00;101101.38;4997774;28;19921;-86
2023/01/23 11:49:25;;;;;;;;;;;;;;;5.93;100.00;101101.38;5015162;28;20001;-87
2023/01/23 11:51:53;;;;;;;;;;;;;;;5.94;100.00;101107.53;5015038;28;20324;-87
2023/01/23 11:54:57;;;;;;;;;;;;;;;5.97;100.00;101105.78;4996151;28;19928;-87
2023/01/23 11:57:23;;;;;;;;;;;;;;;6.06;100.00;101106.63;4954588;29;19922;-87
2023/01/23 11:59:54;;;;;;;;;;;;;;;6.10;100.00;101108.41;4954530;29;20385;-87
2023/01/23 12:02:52;;;;;;;;;;;;;;;6.10;100.00;101093.47;4968132;28;20357;-88
2023/01/23 12:05:30;;;;;;;;;;;;;;;6.13;100.00;101100.50;4981750;28;19964;-87
2023/01/23 12:08:08;;;;;;;;;;;;;;;6.14;100.00;101097.84;5013594;28;20360;-87
2023/01/23 12:10:54;;;;;;;;;;;;;;;6.18;100.00;101101.34;4994699;28;20017;-87
2023/01/23 12:13:55;;;;;;;;;;;;;;;6.20;100.00;101094.31;5013677;28;19922;-88
2023/01/23 12:16:38;;;;;;;;;;;;;;;6.27;100.00;101097.78;4919084;29;20321;-88
2023/01/23 12:19:15;;;;;;;;;;;;;;;6.23;100.00;101094.28;4990242;28;19921;-87
2023/01/23 12:21:40;;;;;;;;;;;;;;;6.34;100.00;101095.13;4995723;28;20277;-88
2023/01/23 12:24:05;;;;;;;;;;;;;;;6.34;100.00;101091.63;4994374;28;19935;-88
2023/01/23 12:26:32;;;;;;;;;;;;;;;6.38;100.00;101103.00;4993436;28;20005;-88
2023/01/23 12:29:07;;;;;;;;;;;;;;;6.34;100.00;101091.63;4994657;28;20008;-89
2023/01/23 12:31:36;;;;;;;;;;;;;;;6.28;100.00;101096.91;4997071;28;19922;-88
2023/01/23 12:34:10;;;;;;;;;;;;;;;6.34;100.00;101089.84;4996713;28;19917;-88
2023/01/23 12:36:48;;;;;;;;;;;;;;;6.26;100.00;101090.78;4996818;28;19924;-87
2023/01/23 12:39:36;;;;;;;;;;;;;;;4.96;100.00;101090.06;4995573;28;19917;-87
2023/01/23 12:42:31;;;;;;;;;;;;;;;4.34;100.00;101092.56;4996099;28;20331;-91
2023/01/23 12:44:56;;;;;;;;;;;;;;;4.10;100.00;101103.81;4991466;28;20369;-88
2023/01/23 12:47:24;;;;;;;;;;;;;;;3.92;100.00;101104.63;4994176;28;19968;-87
2023/01/23 12:49:57;;;;;;;;;;;;;;;3.79;100.00;101099.28;4981044;28;19914;-88
2023/01/23 12:52:28;;;;;;;;;;;;;;;3.67;100.00;101096.63;5007012;28;19928;-87
2023/01/23 12:55:11;;;;;;;;;;;;;;;3.53;100.00;101103.53;4995149;28;19928;-87
2023/01/23 12:57:42;;;;;;;;;;;;;;;3.44;100.00;101089.47;4992830;28;20396;-89
2023/01/23 13:00:26;;;;;;;;;;;;;;;3.34;100.00;101095.50;4987432;28;19913;-88
2023/01/23 13:03:07;;;;;;;;;;;;;;;3.31;100.00;101103.34;4994225;28;19961;-87
2023/01/23 13:05:39;;;;;;;;;;;;;;;3.17;100.00;101097.97;4991158;28;19933;-90
2023/01/23 13:08:22;;;;;;;;;;;;;;;3.10;100.00;101096.19;4984139;28;19917;-88
2023/01/23 13:13:54;;;;;;;;;;;;;;;2.98;100.00;101093.47;5012512;28;19972;-88
2023/01/23 13:16:24;;;;;;;;;;;;;;;2.95;100.00;101090.81;4993951;28;20296;-87
2023/01/23 13:22:00;;;;;;;;;;;;;;;2.85;100.00;101088.09;5008218;28;19963;-88
2023/01/23 13:27:38;;;;;;;;;;;;;;;2.70;100.00;101086.22;5011145;28;19944;-86
2023/01/23 13:30:04;;;;;;;;;;;;;;;2.75;100.00;101083.66;4995662;28;20004;-86
2023/01/23 13:32:30;;;;;;;;;;;;;;;2.62;100.00;101087.00;4995893;28;19917;-88
2023/01/23 13:34:56;;;;;;;;;;;;;;;2.63;100.00;101093.97;5013455;28;19924;-88
2023/01/23 13:37:27;;;;;;;;;;;;;;;2.59;100.00;101093.09;4994805;28;19918;-87
2023/01/23 13:40:13;;;;;;;;;;;;;;;2.54;100.00;101081.69;5013606;28;19921;-88
2023/01/23 13:42:38;;;;;;;;;;;;;;;2.47;100.00;101077.25;4995981;28;19922;-87
2023/01/23 13:45:17;;;;;;;;;;;;;;;2.45;100.00;101076.34;4995825;28;19925;-87
2023/01/23 13:50:51;;;;;;;;;;;;;;;2.36;100.00;101088.47;5013961;28;19925;-88
2023/01/23 13:58:52;;;;;;;;;;;;;;;2.24;100.00;101090.94;4998303;28;19980;-88
2023/01/23 14:06:53;;;;;;;;;;;;;;;2.17;100.00;101104.78;4997764;28;19976;-88
2023/01/23 14:09:41;;;;;;;;;;;;;;;2.17;100.00;101094.31;4996289;28;19957;-88
2023/01/23 14:12:06;;;;;;;;;;;;;;;2.12;100.00;101102.13;4997665;28;19918;-88
2023/01/23 14:17:24;;;;;;;;;;;;;;;2.09;100.00;101106.44;4997837;28;20441;-87
2023/01/23 14:19:58;;;;;;;;;;;;;;;2.06;100.00;101101.16;4997578;28;20000;-89
2023/01/23 14:22:26;;;;;;;;;;;;;;;2.07;100.00;101098.56;4995991;28;19972;-89
2023/01/23 14:24:53;;;;;;;;;;;;;;;1.96;100.00;101095.84;4997282;28;19918;-86
2023/01/23 14:27:35;;;;;;;;;;;;;;;1.92;100.00;101096.63;4997282;28;19921;-86
2023/01/23 14:30:03;;;;;;;;;;;;;;;2.28;100.00;101092.75;4997154;28;19945;-87
2023/01/23 14:32:30;;;;;;;;;;;;;;;2.67;100.00;101085.31;4997334;28;20335;-88
2023/01/23 14:34:58;;;;;;;;;;;;;;;3.14;100.00;101091.84;4997281;28;20396;-87
2023/01/23 14:37:24;;;;;;;;;;;;;;;3.44;100.00;101096.44;4995710;28;20471;-86
2023/01/23 14:40:01;;;;;;;;;;;;;;;3.63;100.00;101079.09;4997184;28;19918;-88
2023/01/23 14:42:30;;;;;;;;;;;;;;;3.78;100.00;101086.19;4995855;28;19917;-86
2023/01/23 14:44:57;;;;;;;;;;;;;;;3.94;100.00;101092.38;4996969;28;19918;-87
2023/01/23 14:47:26;;;;;;;;;;;;;;;4.02;100.00;101089.81;4996940;28;20428;-89
2023/01/23 14:49:55;;;;;;;;;;;;;;;4.16;100.00;101086.41;4996850;28;19933;-88
2023/01/23 14:52:22;;;;;;;;;;;;;;;4.27;100.00;101080.28;4995524;28;19929;-87
2023/01/23 14:54:47;;;;;;;;;;;;;;;4.32;100.00;101083.81;4989833;28;19937;-89
2023/01/23 14:57:13;;;;;;;;;;;;;;;4.42;100.00;101084.72;5016377;28;19917;-87
2023/01/23 14:59:40;;;;;;;;;;;;;;;4.46;100.00;101087.34;5016448;28;19924;-89
2023/01/23 15:02:24;;;;;;;;;;;;;;;4.52;100.00;101082.13;4998544;28;19918;-87
2023/01/23 15:05:08;;;;;;;;;;;;;;;4.61;100.00;101085.63;4998201;28;19924;-87
2023/01/23 15:07:34;;;;;;;;;;;;;;;4.64;100.00;101096.16;5014965;28;19921;-88
2023/01/23 15:09:59;;;;;;;;;;;;;;;4.67;100.00;101090.91;5016221;28;19948;-85
2023/01/23 15:12:25;;;;;;;;;;;;;;;4.73;100.00;101101.44;4998483;28;20027;-87
2023/01/23 15:14:54;;;;;;;;;;;;;;;4.80;100.00;101092.66;5016122;28;19925;-88
2023/01/23 15:17:20;;;;;;;;;;;;;;;4.88;100.00;101096.22;5016007;28;20338;-88
2023/01/23 15:19:54;;;;;;;;;;;;;;;4.97;100.00;101089.22;5016023;28;19925;-88
2023/01/23 15:22:24;;;;;;;;;;;;;;;4.97;100.00;101099.72;5014642;28;19924;-90
2023/01/23 15:24:49;;;;;;;;;;;;;;;5.04;100.00;101101.47;5016002;28;19918;-89
2023/01/23 15:27:23;;;;;;;;;;;;;;;5.16;100.00;101101.47;5015793;28;20000;-89
2023/01/23 15:29:49;;;;;;;;;;;;;;;5.11;100.00;101100.59;5015776;28;19983;-89
2023/01/23 15:32:24;;;;;;;;;;;;;;;5.20;100.00;101108.50;5015727;28;19960;-90
2023/01/23 15:34:54;;;;;;;;;;;;;;;5.22;100.00;101106.75;5015814;28;20004;-89
2023/01/23 15:37:21;;;;;;;;;;;;;;;5.32;100.00;101112.00;4996742;28;19924;-88
2023/01/23 15:39:48;;;;;;;;;;;;;;;5.23;100.00;101118.13;4998036;28;19917;-90
2023/01/23 15:42:13;;;;;;;;;;;;;;;5.28;100.00;101111.09;5015384;28;19917;-89
2023/01/23 15:44:39;;;;;;;;;;;;;;;5.33;100.00;101117.25;5015584;28;20396;-87
2023/01/23 15:47:04;;;;;;;;;;;;;;;5.35;100.00;101117.25;5015476;28;19918;-87
2023/01/23 15:49:31;;;;;;;;;;;;;;;5.48;100.00;101115.50;5015401;28;19948;-88
2023/01/23 15:51:58;;;;;;;;;;;;;;;5.48;100.00;101118.13;5015484;28;19918;-88
2023/01/23 15:54:27;;;;;;;;;;;;;;;5.55;100.00;101119.88;5013776;28;19929;-88
2023/01/23 15:56:52;;;;;;;;;;;;;;;5.50;100.00;101125.13;5015386;28;19929;-89
2023/01/23 15:59:18;;;;;;;;;;;;;;;5.53;100.00;101122.50;5015164;28;19914;-88
2023/01/23 16:01:43;;;;;;;;;;;;;;;5.60;100.00;101120.72;4997543;28;20304;-88
2023/01/23 16:04:08;;;;;;;;;;;;;;;5.59;100.00;101117.22;5015021;28;20312;-88
2023/01/23 16:06:34;;;;;;;;;;;;;;;5.69;100.00;101111.97;4997375;28;20012;-87
2023/01/23 16:08:59;;;;;;;;;;;;;;;5.73;100.00;101105.84;4996482;28;20269;-89
2023/01/23 16:11:26;;;;;;;;;;;;;;;5.73;100.00;101101.44;5014892;28;19936;-87
2023/01/23 16:13:51;;;;;;;;;;;;;;;5.77;100.00;101100.53;4997792;28;19987;-88
2023/01/23 16:16:17;;;;;;;;;;;;;;;5.86;100.00;101110.19;5014028;28;20368;-88
2023/01/23 16:18:42;;;;;;;;;;;;;;;5.88;100.00;101103.16;5015087;28;19980;-88
2023/01/23 16:21:15;;;;;;;;;;;;;;;5.86;100.00;101110.19;5014761;28;20266;-89
2023/01/23 16:23:41;;;;;;;;;;;;;;;5.89;100.00;101104.00;5013457;28;19921;-89
2023/01/23 16:26:14;;;;;;;;;;;;;;;5.89;100.00;101104.91;5014754;28;20311;-88
2023/01/23 16:28:49;;;;;;;;;;;;;;;5.98;100.00;101107.56;4995999;28;19921;-89
2023/01/23 16:31:15;;;;;;;;;;;;;;;6.04;100.00;101111.03;5012029;28;20372;-91
2023/01/23 16:33:40;;;;;;;;;;;;;;;6.04;100.00;101105.78;5014555;28;19921;-88
2023/01/23 16:36:06;;;;;;;;;;;;;;;6.00;100.00;101104.91;5014474;28;19922;-88
2023/01/23 16:38:31;;;;;;;;;;;;;;;6.01;100.00;101104.03;4995636;28;20012;-90
2023/01/23 16:41:14;;;;;;;;;;;;;;;6.07;100.00;101104.00;5011480;28;20373;-87
2023/01/23 16:43:40;;;;;;;;;;;;;;;6.13;100.00;101097.84;4995442;28;19929;-90
2023/01/23 16:46:05;;;;;;;;;;;;;;;6.12;100.00;101093.47;4996827;28;19943;-89
2023/01/23 16:48:30;;;;;;;;;;;;;;;6.17;100.00;101089.06;5014275;28;19925;-89
2023/01/23 16:51:03;;;;;;;;;;;;;;;6.15;100.00;101096.94;4993737;28;20296;-87
2023/01/23 16:53:34;;;;;;;;;;;;;;;6.22;100.00;101097.78;4984390;28;19933;-89
2023/01/23 16:56:00;;;;;;;;;;;;;;;6.22;100.00;101091.66;5014358;28;20289;-90
2023/01/23 16:58:36;;;;;;;;;;;;;;;6.25;100.00;101092.53;5009824;28;19926;-89
2023/01/23 17:01:06;;;;;;;;;;;;;;;6.30;100.00;101096.03;4995488;28;20388;-90
2023/01/23 17:03:33;;;;;;;;;;;;;;;6.31;100.00;101087.22;4985797;28;19987;-88
2023/01/23 17:06:01;;;;;;;;;;;;;;;6.31;100.00;101091.63;4986459;28;20082;-86
2023/01/23 17:08:26;;;;;;;;;;;;;;;6.31;100.00;101097.75;5000248;28;19979;-88
2023/01/23 17:10:53;;;;;;;;;;;;;;;6.40;100.00;101095.97;5002329;28;19922;-88
2023/01/23 17:13:19;;;;;;;;;;;;;;;6.38;100.00;101093.34;4994310;28;19922;-90
2023/01/23 17:15:46;;;;;;;;;;;;;;;6.41;100.00;101095.09;5012135;28;19975;-87
2023/01/23 17:18:22;;;;;;;;;;;;;;;5.37;100.00;101094.47;5008303;28;19949;-89
2023/01/23 17:20:48;;;;;;;;;;;;;;;4.56;100.00;101101.38;5002049;28;19967;-88
2023/01/23 17:23:13;;;;;;;;;;;;;;;4.22;100.00;101095.16;4993953;28;19925;-90
2023/01/23 17:25:46;;;;;;;;;;;;;;;4.05;100.00;101101.19;5013699;28;19921;-89
2023/01/23 17:28:12;;;;;;;;;;;;;;;3.96;100.00;101101.16;5012521;28;19925;-88
2023/01/23 17:30:38;;;;;;;;;;;;;;;3.78;100.00;101101.91;5012629;28;19928;-88
2023/01/23 17:33:03;;;;;;;;;;;;;;;3.66;100.00;101097.47;5010966;28;19926;-87
2023/01/23 17:35:33;;;;;;;;;;;;;;;3.52;100.00;101102.63;5013491;28;19993;-88
2023/01/23 17:37:59;;;;;;;;;;;;;;;3.40;100.00;101102.56;5011135;28;20355;-88
2023/01/23 17:40:24;;;;;;;;;;;;;;;3.31;100.00;101110.34;4985784;28;20000;-88
2023/01/23 17:42:50;;;;;;;;;;;;;;;3.29;100.00;101107.69;4999613;28;20017;-87
2023/01/23 17:45:17;;;;;;;;;;;;;;;3.17;100.00;101116.31;4998412;28;19925;-86
2023/01/23 17:47:46;;;;;;;;;;;;;;;3.12;100.00;101109.31;5011862;28;19921;-88
2023/01/23 17:50:21;;;;;;;;;;;;;;;3.02;100.00;101109.22;4988531;28;19956;-88
2023/01/23 17:52:47;;;;;;;;;;;;;;;2.98;100.00;101106.53;4983787;28;19917;-87
2023/01/23 17:55:13;;;;;;;;;;;;;;;2.93;100.00;101110.88;4997400;28;20585;-87
2023/01/23 17:57:39;;;;;;;;;;;;;;;2.91;100.00;101111.72;4993841;28;19929;-86
2023/01/23 18:00:09;;;;;;;;;;;;;;;2.78;100.00;101112.47;5008121;28;19924;-88
2023/01/23 18:02:35;;;;;;;;;;;;;;;2.73;100.00;101112.44;4976265;28;20277;-88
2023/01/23 18:05:01;;;;;;;;;;;;;;;2.75;100.00;101124.66;4985405;28;19917;-88
2023/01/23 18:07:26;;;;;;;;;;;;;;;2.66;100.00;101117.56;4994106;28;19953;-88
2023/01/23 18:09:54;;;;;;;;;;;;;;;2.65;100.00;101116.72;5000289;28;19918;-88
2023/01/23 18:12:28;;;;;;;;;;;;;;;2.59;100.00;101121.88;4976101;28;20375;-88
2023/01/23 18:15:14;;;;;;;;;;;;;;;2.57;100.00;101126.22;4995541;28;19952;-88
2023/01/23 18:17:42;;;;;;;;;;;;;;;2.50;100.00;101125.25;4993859;28;19927;-89
2023/01/23 18:20:36;;;;;;;;;;;;;;;2.44;100.00;101124.28;5013269;28;19920;-85
2023/01/23 18:23:04;;;;;;;;;;;;;;;2.42;100.00;101123.41;5009692;28;19928;-90
2023/01/23 18:25:29;;;;;;;;;;;;;;;2.39;100.00;101119.00;4994729;28;19925;-89
2023/01/23 18:27:55;;;;;;;;;;;;;;;2.32;100.00;101120.69;4994670;28;19979;-88
2023/01/23 18:30:42;;;;;;;;;;;;;;;2.35;100.00;101115.50;5001698;28;20273;-88
2023/01/23 18:33:10;;;;;;;;;;;;;;;2.24;100.00;101118.84;5011081;28;19924;-89
2023/01/23 18:35:43;;;;;;;;;;;;;;;2.22;100.00;101118.81;4993638;28;20292;-89
2023/01/23 18:38:26;;;;;;;;;;;;;;;2.22;100.00;101113.59;4992410;28;19913;-90
2023/01/23 18:41:13;;;;;;;;;;;;;;;2.16;100.00;101111.75;4989037;28;20377;-84
2023/01/23 18:43:42;;;;;;;;;;;;;;;2.14;100.00;101102.16;4983743;28;20336;-89
2023/01/23 18:46:19;;;;;;;;;;;;;;;2.10;100.00;101103.84;4999018;28;19921;-89
2023/01/23 18:48:54;;;;;;;;;;;;;;;2.06;100.00;101111.63;4998147;28;19933;-88
2023/01/23 18:51:39;;;;;;;;;;;;;;;2.06;100.00;101112.53;4992784;28;20409;-88
2023/01/23 18:54:14;;;;;;;;;;;;;;;2.04;100.00;101113.34;4989181;28;20369;-88
2023/01/23 18:56:52;;;;;;;;;;;;;;;2.02;100.00;101108.09;4986525;28;19921;-88
2023/01/23 18:59:35;;;;;;;;;;;;;;;2.00;100.00;101101.97;4991302;28;19929;-89
2023/01/23 19:02:15;;;;;;;;;;;;;;;2.41;100.00;101098.09;4992274;28;19961;-88
2023/01/23 19:04:46;;;;;;;;;;;;;;;2.89;100.00;101112.59;4991197;28;20289;-88
2023/01/23 19:07:14;;;;;;;;;;;;;;;3.37;100.00;101108.63;4978492;28;20317;-88
2023/01/23 19:09:45;;;;;;;;;;;;;;;3.60;100.00;101108.78;4957104;28;20440;-88
2023/01/23 19:12:42;;;;;;;;;;;;;;;3.74;100.00;101106.25;4992063;28;19924;-88
2023/01/23 19:15:40;;;;;;;;;;;;;;;3.97;100.00;101103.78;4919854;29;19926;-87
2023/01/23 19:18:08;;;;;;;;;;;;;;;4.16;100.00;101116.97;4947460;28;19928;-89
2023/01/23 19:20:39;;;;;;;;;;;;;;;4.28;100.00;101116.19;4996613;28;20312;-89
2023/01/23 19:23:23;;;;;;;;;;;;;;;4.38;100.00;101119.72;5013934;28;19925;-87
2023/01/23 19:25:49;;;;;;;;;;;;;;;4.47;100.00;101123.25;5012994;28;19921;-88
2023/01/23 19:28:16;;;;;;;;;;;;;;;4.55;100.00;101118.88;4996266;28;19925;-87
2023/01/23 19:30:42;;;;;;;;;;;;;;;4.52;100.00;101123.25;4996324;28;19921;-86
2023/01/23 19:33:15;;;;;;;;;;;;;;;4.58;100.00;101123.28;4997279;28;19920;-88
2023/01/23 19:35:41;;;;;;;;;;;;;;;4.75;100.00;101131.19;4997159;28;19917;-84
2023/01/23 19:38:06;;;;;;;;;;;;;;;4.79;100.00;101129.47;5013023;28;20296;-89
2023/01/23 19:40:32;;;;;;;;;;;;;;;4.89;100.00;101137.34;5013798;28;20020;-87
2023/01/23 19:42:57;;;;;;;;;;;;;;;4.90;100.00;101138.25;4997018;28;20372;-88
2023/01/23 19:45:23;;;;;;;;;;;;;;;4.92;100.00;101128.59;4997242;28;19917;-86
2023/01/23 19:47:49;;;;;;;;;;;;;;;4.97;100.00;101129.47;4996254;28;19921;-87
2023/01/23 19:50:15;;;;;;;;;;;;;;;4.94;100.00;101131.22;4995062;28;20451;-86
2023/01/23 19:52:44;;;;;;;;;;;;;;;5.01;100.00;101133.88;4992910;28;19922;-87
2023/01/23 19:55:29;;;;;;;;;;;;;;;5.16;100.00;101137.41;4996921;28;19921;-88
2023/01/23 19:58:05;;;;;;;;;;;;;;;5.16;100.00;101130.38;4995365;28;19917;-86
2023/01/23 20:00:31;;;;;;;;;;;;;;;5.25;100.00;101137.41;4996690;28;20365;-86
2023/01/23 20:03:07;;;;;;;;;;;;;;;5.23;100.00;101133.88;5013297;28;19926;-87
2023/01/23 20:05:32;;;;;;;;;;;;;;;5.35;100.00;101136.53;4996711;28;19925;-86
2023/01/23 20:07:58;;;;;;;;;;;;;;;5.39;100.00;101145.28;5013193;28;19952;-86
2023/01/23 20:10:23;;;;;;;;;;;;;;;5.38;100.00;101139.16;4995478;28;21729;-87
2023/01/23 20:12:55;;;;;;;;;;;;;;;5.50;100.00;101147.91;5014171;28;19925;-87
2023/01/23 20:15:32;;;;;;;;;;;;;;;5.45;100.00;101146.16;4994638;28;19921;-87
2023/01/23 20:17:57;;;;;;;;;;;;;;;5.54;100.00;101152.31;5014026;28;19917;-86
2023/01/23 20:20:43;;;;;;;;;;;;;;;5.54;100.00;101149.69;5003196;28;19918;-88
2023/01/23 20:23:18;;;;;;;;;;;;;;;5.64;100.00;101152.28;4993265;28;19918;-87
2023/01/23 20:25:45;;;;;;;;;;;;;;;5.61;100.00;101160.16;4976881;28;19922;-87
2023/01/23 20:28:23;;;;;;;;;;;;;;;;;;;;;
2023/01/23 20:30:59;;;;;;;;;;;;;;;;;;;;;
2023/01/23 20:33:24;;;;;;;;;;;;;;;5.77;100.00;101168.06;4991226;28;19914;-87
2023/01/23 20:35:51;;;;;;;;;;;;;;;5.76;100.00;101175.09;4976805;28;20001;-87
2023/01/23 20:38:19;;;;;;;;;;;;;;;5.81;100.00;101175.09;4975277;28;19914;-88
2023/01/23 20:40:44;;;;;;;;;;;;;;;5.88;100.00;101175.94;4994103;28;19918;-89
2023/01/23 20:43:10;;;;;;;;;;;;;;;5.90;100.00;101182.94;5006593;28;19929;-88
2023/01/23 20:45:48;;;;;;;;;;;;;;;5.93;100.00;101185.56;5012482;28;19921;-88
2023/01/23 20:48:39;;;;;;;;;;;;;;;5.96;100.00;101180.34;5012709;28;19921;-89
2023/01/23 20:51:06;;;;;;;;;;;;;;;5.97;100.00;101182.09;4984783;28;20453;-87
2023/01/23 20:53:37;;;;;;;;;;;;;;;5.99;100.00;101185.59;4990195;28;19927;-88
2023/01/23 20:56:04;;;;;;;;;;;;;;;6.05;100.00;101196.97;4994952;28;19929;-88
2023/01/23 21:01:14;;;;;;;;;;;;;;;6.06;100.00;101199.59;5004769;28;19967;-88
2023/01/23 21:03:40;;;;;;;;;;;;;;;6.09;100.00;101196.09;4994767;28;19921;-89
2023/01/23 21:06:09;;;;;;;;;;;;;;;6.07;100.00;101189.97;5012261;28;19929;-86
2023/01/23 21:08:35;;;;;;;;;;;;;;;6.14;100.00;101182.06;5012371;28;20280;-89
2023/01/23 21:11:07;;;;;;;;;;;;;;;6.14;100.00;101184.72;5010662;28;19925;-90
2023/01/23 21:13:34;;;;;;;;;;;;;;;6.24;100.00;101180.28;4995563;28;19948;-88
2023/01/23 21:16:20;;;;;;;;;;;;;;;6.27;100.00;101187.28;4995012;28;20330;-90
2023/01/23 21:18:46;;;;;;;;;;;;;;;6.25;100.00;101189.91;5010611;28;19929;-89
2023/01/23 21:21:13;;;;;;;;;;;;;;;6.27;100.00;101184.66;4994940;28;20040;-88
2023/01/23 21:23:38;;;;;;;;;;;;;;;6.30;100.00;101185.53;4994327;28;19944;-88
2023/01/23 21:26:04;;;;;;;;;;;;;;;6.28;100.00;101191.69;5012281;28;20011;-89
2023/01/23 21:28:30;;;;;;;;;;;;;;;6.23;100.00;101193.44;4993717;28;19921;-89
2023/01/23 21:30:55;;;;;;;;;;;;;;;6.33;100.00;101182.00;5009292;28;19929;-89
2023/01/23 21:33:21;;;;;;;;;;;;;;;6.29;100.00;101188.19;5011120;28;19922;-89
2023/01/23 21:35:53;;;;;;;;;;;;;;;6.26;100.00;101202.22;5000806;28;19961;-89
2023/01/23 21:38:19;;;;;;;;;;;;;;;6.41;100.00;101190.75;4992157;28;20266;-89
2023/01/23 21:40:47;;;;;;;;;;;;;;;5.92;100.00;101207.50;4999712;28;20039;-89
2023/01/23 21:43:12;;;;;;;;;;;;;;;4.93;100.00;101209.16;5012754;28;20396;-90
2023/01/23 21:45:37;;;;;;;;;;;;;;;4.34;100.00;101205.41;4995219;28;19923;-89
2023/01/23 21:48:03;;;;;;;;;;;;;;;4.09;100.00;101221.00;4995295;28;19917;-89
2023/01/23 21:50:28;;;;;;;;;;;;;;;3.93;100.00;101222.66;4993796;28;20434;-89
2023/01/23 21:52:53;;;;;;;;;;;;;;;3.79;100.00;101229.53;4992251;28;19971;-89
2023/01/23 21:55:21;;;;;;;;;;;;;;;3.64;100.00;101225.91;5012395;28;19953;-88
2023/01/23 21:58:16;;;;;;;;;;;;;;;3.54;100.00;101216.22;4989206;28;19922;-90
2023/01/23 22:03:24;;;;;;;;;;;;;;;3.35;100.00;101215.19;4991033;28;19929;-90
2023/01/23 22:06:00;;;;;;;;;;;;;;;;;;;;;
2023/01/23 22:08:25;;;;;;;;;;;;;;;3.20;100.00;101212.41;4990448;28;19924;-87
2023/01/23 22:10:52;;;;;;;;;;;;;;;3.15;100.00;101209.72;4973240;28;20020;-88
2023/01/23 22:13:17;;;;;;;;;;;;;;;3.09;100.00;101214.91;4989943;28;19924;-88
2023/01/23 22:15:43;;;;;;;;;;;;;;;3.04;100.00;101217.47;4992517;28;19922;-87
2023/01/23 22:18:08;;;;;;;;;;;;;;;2.99;100.00;101216.53;4976479;28;20018;-87